createdAt,value
2022-08-18T00:02:28.973Z,20.9
2022-08-18T00:08:25.451Z,21
2022-08-18T00:14:23.005Z,20.9
2022-08-18T00:20:15.346Z,20.8
2022-08-18T00:26:08.955Z,20.8
2022-08-18T00:32:01.073Z,20.7
2022-08-18T00:37:52.298Z,20.8
2022-08-18T00:43:45.369Z,20.5
2022-08-18T00:49:36.584Z,20
2022-08-18T00:55:28.277Z,19.6
2022-08-18T01:01:21.452Z,20.2
2022-08-18T01:07:12.530Z,20.2
2022-08-18T01:13:05.215Z,20.1
2022-08-18T01:18:58.417Z,20.3
2022-08-18T01:24:50.437Z,19.9
2022-08-18T01:30:42.484Z,19.9
2022-08-18T01:36:33.489Z,19.3
2022-08-18T01:42:26.863Z,19.7
2022-08-18T01:48:21.085Z,19.7
2022-08-18T01:54:13.268Z,19.8
2022-08-18T02:00:04.588Z,19.5
2022-08-18T02:06:04.445Z,19.5
2022-08-18T02:12:00.409Z,19.6
2022-08-18T02:17:52.755Z,19.5
2022-08-18T02:23:53.474Z,19.7
2022-08-18T02:29:45.890Z,19.3
2022-08-18T02:35:37.657Z,19.5
2022-08-18T02:41:29.732Z,19.5
2022-08-18T02:47:21.181Z,19.2
2022-08-18T02:53:19.006Z,19.2
2022-08-18T02:59:10.258Z,19.2
2022-08-18T03:05:02.764Z,19.2
2022-08-18T03:11:00.832Z,18.8
2022-08-18T03:16:53.796Z,19.1
2022-08-18T03:22:45.212Z,19.2
2022-08-18T03:28:36.880Z,19
2022-08-18T03:34:25.102Z,18.6
2022-08-18T03:40:16.904Z,18.7
2022-08-18T03:46:06.426Z,18.8
2022-08-18T03:51:58.056Z,18.8
2022-08-18T03:57:51.280Z,19
2022-08-18T04:03:43.339Z,19
2022-08-18T04:09:37.792Z,18.7
2022-08-18T04:15:28.641Z,19
2022-08-18T04:21:20.462Z,18.9
2022-08-18T04:27:12.908Z,19.1
2022-08-18T04:33:05.339Z,19
2022-08-18T04:38:59.111Z,19.1
2022-08-18T04:44:50.836Z,18.9
2022-08-18T04:50:42.568Z,19.1
2022-08-18T04:56:33.682Z,19.4
2022-08-18T05:02:25.484Z,19.1
2022-08-18T05:08:16.882Z,19.2
2022-08-18T05:14:05.643Z,19.3
2022-08-18T05:19:58.035Z,19.6
2022-08-18T05:25:50.200Z,19.3
2022-08-18T05:31:45.850Z,19.3
2022-08-18T05:37:36.868Z,19.5
2022-08-18T05:43:30.577Z,19.5
2022-08-18T05:49:30.460Z,19.4
2022-08-18T05:55:21.117Z,19.6
2022-08-18T06:01:12.118Z,19.4
2022-08-18T06:07:02.375Z,19.5
2022-08-18T06:12:53.414Z,19.8
2022-08-18T06:18:44.911Z,19.7
2022-08-18T06:24:34.921Z,19.8
2022-08-18T06:30:25.634Z,19.5
2022-08-18T06:36:15.559Z,19.5
2022-08-18T06:42:14.028Z,19.5
2022-08-18T06:48:04.737Z,19.4
2022-08-18T06:54:04.304Z,19.5
2022-08-18T06:59:55.995Z,19.4
2022-08-18T07:05:46.419Z,19.6
2022-08-18T07:11:39.808Z,19.4
2022-08-18T07:17:42.951Z,19.4
2022-08-18T07:23:34.931Z,19.4
2022-08-18T07:29:25.178Z,19.5
2022-08-18T07:35:15.752Z,19.4
2022-08-18T07:41:05.923Z,19.4
2022-08-18T07:46:56.408Z,19.4
2022-08-18T07:52:49.235Z,19.8
2022-08-18T07:58:41.940Z,19.6
2022-08-18T08:04:35.380Z,19.4
2022-08-18T08:10:28.627Z,19.5
2022-08-18T08:16:22.391Z,19.7
2022-08-18T08:22:14.938Z,19.5
2022-08-18T08:28:06.182Z,19.9
2022-08-18T08:34:08.152Z,19.6
2022-08-18T08:40:02.119Z,19.6
2022-08-18T08:45:55.662Z,19.7
2022-08-18T08:51:47.158Z,20
2022-08-18T08:57:43.739Z,19.9
2022-08-18T09:03:35.479Z,19.7
2022-08-18T09:09:26.112Z,19.9
2022-08-18T09:15:15.291Z,20.1
2022-08-18T09:21:06.256Z,20
2022-08-18T09:26:58.069Z,20.4
2022-08-18T09:32:51.267Z,20.3
2022-08-18T09:38:43.994Z,20.3
2022-08-18T09:44:37.682Z,20.6
2022-08-18T10:04:21.548Z,20.9
2022-08-18T10:17:21.899Z,21.1
2022-08-18T10:30:57.212Z,21.1
2022-08-18T10:43:55.387Z,21.5
2022-08-18T10:50:29.493Z,20.9
2022-08-18T11:16:51.988Z,21.9
2022-08-18T11:29:52.322Z,22.4
2022-08-18T11:49:29.457Z,22.2
2022-08-18T11:55:42.679Z,22.9
2022-08-18T13:10:35.953Z,23.9
2022-08-18T13:17:05.393Z,23.7
2022-08-18T13:23:28.379Z,23.8
2022-08-18T13:29:22.112Z,23.5
2022-08-18T13:35:15.084Z,23.7
2022-08-18T13:41:29.708Z,24.4
2022-08-18T13:47:29.962Z,23.9
2022-08-18T13:53:31.450Z,24
2022-08-18T14:00:18.107Z,24.1
2022-08-18T14:06:22.092Z,24.8
2022-08-18T14:12:23.091Z,24.2
2022-08-18T14:18:28.803Z,24.6
2022-08-18T14:24:25.021Z,24.3
2022-08-18T14:30:21.317Z,24.6
2022-08-18T14:36:11.136Z,24.3
2022-08-18T14:42:04.595Z,24.5
2022-08-18T14:48:04.432Z,24.2
2022-08-18T14:54:01.979Z,24.1
2022-08-18T15:00:03.545Z,24.4
2022-08-18T15:06:05.493Z,24.4
2022-08-18T15:12:12.919Z,24.7
2022-08-18T15:18:07.544Z,24.7
2022-08-18T15:24:14.924Z,24.7
2022-08-18T15:30:12.338Z,24.9
2022-08-18T15:36:16.217Z,24.7
2022-08-18T15:42:16.233Z,25.3
2022-08-18T15:48:09.931Z,25.4
2022-08-18T15:54:03.180Z,25.4
2022-08-18T15:59:58.946Z,25.3
2022-08-18T16:05:50.614Z,25.5
2022-08-18T16:11:43.092Z,25.2
2022-08-18T16:17:32.218Z,24.9
2022-08-18T16:23:21.865Z,25
2022-08-18T16:29:11.325Z,24.7
2022-08-18T16:35:00.856Z,24.9
2022-08-18T16:40:50.408Z,24.9
2022-08-18T16:46:40.399Z,24.8
2022-08-18T16:52:29.645Z,24.8
2022-08-18T16:58:19.480Z,24.7
2022-08-18T17:04:13.454Z,25
2022-08-18T17:10:07.989Z,24.8
2022-08-18T17:15:57.282Z,24.7
2022-08-18T17:21:47.191Z,24.7
2022-08-18T17:27:38.006Z,24.7
2022-08-18T17:33:35.234Z,24.6
2022-08-18T17:39:24.540Z,24.6
2022-08-18T17:45:20.215Z,24.6
2022-08-18T17:51:10.883Z,24.5
2022-08-18T17:57:00.424Z,24.5
2022-08-18T18:02:50.007Z,24.4
2022-08-18T18:08:39.631Z,24.5
2022-08-18T18:14:28.933Z,24.3
2022-08-18T18:20:18.728Z,24.2
2022-08-18T18:26:09.340Z,24.2
2022-08-18T18:31:58.774Z,24.2
2022-08-18T18:37:48.717Z,24.1
2022-08-18T18:43:38.847Z,24.1
2022-08-18T18:49:28.782Z,24.1
2022-08-18T18:55:17.913Z,24
2022-08-18T19:01:06.928Z,23.9
2022-08-18T19:06:56.737Z,23.7
2022-08-18T19:12:45.701Z,23.6
2022-08-18T19:18:34.566Z,23.5
2022-08-18T19:24:28.099Z,23.4
2022-08-18T19:30:17.651Z,23.4
2022-08-18T19:36:09.781Z,23.4
2022-08-18T19:42:17.730Z,23.2
2022-08-18T19:48:08.655Z,23.1
2022-08-18T19:54:04.825Z,22.9
2022-08-18T19:59:55.983Z,22.8
2022-08-18T20:05:53.456Z,22.8
2022-08-18T20:12:18.854Z,22.6
2022-08-18T20:18:10.040Z,22.2
2022-08-18T20:24:01.994Z,22.3
2022-08-18T20:29:54.386Z,22.2
2022-08-18T20:35:48.847Z,21.8
2022-08-18T20:41:40.506Z,21.9
2022-08-18T20:47:32.000Z,21.9
2022-08-18T20:53:24.728Z,21.8
2022-08-18T20:59:21.662Z,21.5
2022-08-18T21:05:11.976Z,21.3
2022-08-18T21:12:28.738Z,21.3
2022-08-18T21:18:18.761Z,21.3
2022-08-18T21:24:10.033Z,20.8
2022-08-18T21:30:00.908Z,20.9
2022-08-18T21:35:51.787Z,20.9
2022-08-18T21:41:44.866Z,20.7
2022-08-18T21:47:35.949Z,20.8
2022-08-18T21:53:28.049Z,20.9
2022-08-18T21:59:18.986Z,20.9
2022-08-18T22:05:10.049Z,20.9
2022-08-18T22:11:02.936Z,20.5
2022-08-18T22:16:54.116Z,20.6
2022-08-18T22:22:45.400Z,20.2
2022-08-18T22:28:36.742Z,20.2
2022-08-18T22:34:27.706Z,20
2022-08-18T22:40:21.692Z,20.1
2022-08-18T22:46:12.581Z,20.3
2022-08-18T22:52:13.631Z,20.2
2022-08-18T22:58:05.986Z,19.8
2022-08-18T23:04:15.174Z,20.1
2022-08-18T23:10:08.341Z,20
2022-08-18T23:16:12.628Z,19.9
2022-08-18T23:22:28.220Z,20.1
2022-08-18T23:28:33.553Z,20
2022-08-18T23:47:12.610Z,20.2
2022-08-18T23:59:16.646Z,20.2
